Lahoma, Oklahoma
Current Conditions -  °F | °C
As of 2:18 AM on Thursday 18 Dec 2014 (Local Time) from KEND Reporting Station
Haze Haze  
Wind Chill: 30°   Ceiling: 100
Heat Index: 36°   Visibility: 2mi
Dew Point: 36°   Wind: 7mph
Humidity: 100%   Direction: 100°E
Pressure: 30.11"   Gusts: NA
Location:  36.39°N, 98.09°W
Report Text: KEND 180818Z AUTO 10006KT 2SM R17C/3000FT BR OVC001 02/02 A3011 RMK AO2 VIS 1 RWY35C $
Loading
Personal Weather Stations






























Interactive Weather Map New forecast layout! Learn more

10-Day Weather Forecast

Advertisements
Track Severe Weather on mobile